sensor_id;sensor_type;location;lat;lon;timestamp;pressure;altitude;pressure_sealevel;temperature;humidity
43312;BME280;30041;48.300;16.352;2024-01-30T00:00:21;101618.50;;;21.62;37.18
43312;BME280;30041;48.300;16.352;2024-01-30T00:02:47;101618.50;;;21.62;37.36
43312;BME280;30041;48.300;16.352;2024-01-30T00:05:13;101625.75;;;21.61;37.21
43312;BME280;30041;48.300;16.352;2024-01-30T00:07:41;101627.44;;;21.62;37.23
43312;BME280;30041;48.300;16.352;2024-01-30T00:10:10;101626.59;;;21.62;37.31
43312;BME280;30041;48.300;16.352;2024-01-30T00:12:36;101630.13;;;21.62;37.40
43312;BME280;30041;48.300;16.352;2024-01-30T00:15:01;101620.34;;;21.61;37.24
43312;BME280;30041;48.300;16.352;2024-01-30T00:17:27;101616.81;;;21.61;37.28
43312;BME280;30041;48.300;16.352;2024-01-30T00:19:53;101622.03;;;21.62;37.10
43312;BME280;30041;48.300;16.352;2024-01-30T00:22:19;101622.22;;;21.61;37.28
43312;BME280;30041;48.300;16.352;2024-01-30T00:24:45;101620.34;;;21.61;37.12
43312;BME280;30041;48.300;16.352;2024-01-30T00:27:10;101624.72;;;21.62;37.18
43312;BME280;30041;48.300;16.352;2024-01-30T00:29:36;101623.03;;;21.61;37.15
43312;BME280;30041;48.300;16.352;2024-01-30T00:32:02;101628.44;;;21.61;37.36
43312;BME280;30041;48.300;16.352;2024-01-30T00:34:28;101631.13;;;21.61;37.25
43312;BME280;30041;48.300;16.352;2024-01-30T00:36:53;101629.31;;;21.62;37.14
43312;BME280;30041;48.300;16.352;2024-01-30T00:39:19;101629.47;;;21.60;37.24
43312;BME280;30041;48.300;16.352;2024-01-30T00:41:45;101627.63;;;21.61;37.12
43312;BME280;30041;48.300;16.352;2024-01-30T00:44:11;101630.53;;;21.59;37.31
43312;BME280;30041;48.300;16.352;2024-01-30T00:46:37;101632.19;;;21.60;37.21
43312;BME280;30041;48.300;16.352;2024-01-30T00:49:02;101633.22;;;21.59;37.29
43312;BME280;30041;48.300;16.352;2024-01-30T00:51:28;101629.47;;;21.60;37.12
43312;BME280;30041;48.300;16.352;2024-01-30T00:53:54;101631.34;;;21.60;37.15
43312;BME280;30041;48.300;16.352;2024-01-30T00:56:20;101627.81;;;21.59;37.28
43312;BME280;30041;48.300;16.352;2024-01-30T00:58:45;101620.75;;;21.58;37.11
43312;BME280;30041;48.300;16.352;2024-01-30T01:01:11;101615.34;;;21.58;37.23
43312;BME280;30041;48.300;16.352;2024-01-30T01:03:37;101613.47;;;21.59;37.12
43312;BME280;30041;48.300;16.352;2024-01-30T01:06:03;101608.94;;;21.59;37.16
43312;BME280;30041;48.300;16.352;2024-01-30T01:08:29;101607.25;;;21.58;37.20
43312;BME280;30041;48.300;16.352;2024-01-30T01:10:54;101601.03;;;21.58;37.19
43312;BME280;30041;48.300;16.352;2024-01-30T01:13:20;101602.88;;;21.57;37.20
43312;BME280;30041;48.300;16.352;2024-01-30T01:15:48;101600.19;;;21.57;37.09
43312;BME280;30041;48.300;16.352;2024-01-30T01:18:14;101601.03;;;21.58;37.05
43312;BME280;30041;48.300;16.352;2024-01-30T01:20:40;101600.19;;;21.57;37.16
43312;BME280;30041;48.300;16.352;2024-01-30T01:23:06;101594.78;;;21.57;37.18
43312;BME280;30041;48.300;16.352;2024-01-30T01:25:32;101596.44;;;21.58;37.05
43312;BME280;30041;48.300;16.352;2024-01-30T01:27:57;101592.09;;;21.57;37.03
43312;BME280;30041;48.300;16.352;2024-01-30T01:30:23;101587.72;;;21.56;37.33
43312;BME280;30041;48.300;16.352;2024-01-30T01:32:49;101590.41;;;21.56;37.08
43312;BME280;30041;48.300;16.352;2024-01-30T01:35:15;101593.94;;;21.56;37.05
43312;BME280;30041;48.300;16.352;2024-01-30T01:37:40;101582.31;;;21.56;37.01
43312;BME280;30041;48.300;16.352;2024-01-30T01:40:07;101586.06;;;21.55;37.24
43312;BME280;30041;48.300;16.352;2024-01-30T01:42:36;101577.97;;;21.55;37.05
43312;BME280;30041;48.300;16.352;2024-01-30T01:45:01;101585.22;;;21.54;37.17
43312;BME280;30041;48.300;16.352;2024-01-30T01:47:27;101588.75;;;21.55;36.90
43312;BME280;30041;48.300;16.352;2024-01-30T01:49:53;101580.66;;;21.55;37.28
43312;BME280;30041;48.300;16.352;2024-01-30T01:52:19;101586.06;;;21.55;37.14
43312;BME280;30041;48.300;16.352;2024-01-30T01:54:45;101583.34;;;21.55;37.06
43312;BME280;30041;48.300;16.352;2024-01-30T01:57:10;101578.97;;;21.54;37.26
43312;BME280;30041;48.300;16.352;2024-01-30T01:59:36;101587.06;;;21.54;37.05
43312;BME280;30041;48.300;16.352;2024-01-30T02:02:03;101585.22;;;21.54;36.98
43312;BME280;30041;48.300;16.352;2024-01-30T02:04:30;101587.06;;;21.54;37.11
43312;BME280;30041;48.300;16.352;2024-01-30T02:06:55;101589.75;;;21.54;37.00
43312;BME280;30041;48.300;16.352;2024-01-30T02:09:21;101579.84;;;21.54;36.98
43312;BME280;30041;48.300;16.352;2024-01-30T02:11:47;101581.88;;;21.52;37.15
43312;BME280;30041;48.300;16.352;2024-01-30T02:14:13;101582.72;;;21.53;37.12
43312;BME280;30041;48.300;16.352;2024-01-30T02:16:41;101580.00;;;21.53;37.11
43312;BME280;30041;48.300;16.352;2024-01-30T02:19:07;101580.00;;;21.53;36.99
43312;BME280;30041;48.300;16.352;2024-01-30T02:21:33;101569.22;;;21.53;36.88
43312;BME280;30041;48.300;16.352;2024-01-30T02:23:59;101561.31;;;21.51;37.00
43312;BME280;30041;48.300;16.352;2024-01-30T02:26:26;101560.28;;;21.52;37.20
43312;BME280;30041;48.300;16.352;2024-01-30T02:28:55;101552.22;;;21.52;37.00
43312;BME280;30041;48.300;16.352;2024-01-30T02:31:25;101558.59;;;21.51;36.98
43312;BME280;30041;48.300;16.352;2024-01-30T02:33:51;101555.91;;;21.51;37.09
43312;BME280;30041;48.300;16.352;2024-01-30T02:36:17;101560.66;;;21.49;36.99
43312;BME280;30041;48.300;16.352;2024-01-30T02:38:42;101562.34;;;21.50;36.89
43312;BME280;30041;48.300;16.352;2024-01-30T02:41:08;101564.19;;;21.50;36.92
43312;BME280;30041;48.300;16.352;2024-01-30T02:43:34;101565.22;;;21.49;36.87
43312;BME280;30041;48.300;16.352;2024-01-30T02:46:00;101579.53;;;21.49;36.96
43312;BME280;30041;48.300;16.352;2024-01-30T02:48:26;101568.75;;;21.49;36.95
43312;BME280;30041;48.300;16.352;2024-01-30T02:50:57;101571.44;;;21.49;37.04
43312;BME280;30041;48.300;16.352;2024-01-30T02:53:22;101561.69;;;21.48;37.03
43312;BME280;30041;48.300;16.352;2024-01-30T02:55:48;101566.06;;;21.49;37.07
43312;BME280;30041;48.300;16.352;2024-01-30T02:58:14;101561.50;;;21.50;36.82
43312;BME280;30041;48.300;16.352;2024-01-30T03:00:40;101561.50;;;21.50;36.99
43312;BME280;30041;48.300;16.352;2024-01-30T03:03:06;101554.44;;;21.49;36.92
43312;BME280;30041;48.300;16.352;2024-01-30T03:05:32;101555.47;;;21.48;37.03
43312;BME280;30041;48.300;16.352;2024-01-30T03:07:57;101551.75;;;21.49;36.95
43312;BME280;30041;48.300;16.352;2024-01-30T03:10:23;101554.44;;;21.49;36.89
43312;BME280;30041;48.300;16.352;2024-01-30T03:12:49;101554.63;;;21.47;36.88
43312;BME280;30041;48.300;16.352;2024-01-30T03:15:14;101558.19;;;21.48;36.94
43312;BME280;30041;48.300;16.352;2024-01-30T03:17:40;101553.78;;;21.47;37.00
43312;BME280;30041;48.300;16.352;2024-01-30T03:20:07;101547.38;;;21.48;36.95
43312;BME280;30041;48.300;16.352;2024-01-30T03:22:32;101552.78;;;21.48;36.96
43312;BME280;30041;48.300;16.352;2024-01-30T03:24:58;101546.53;;;21.47;37.00
43312;BME280;30041;48.300;16.352;2024-01-30T03:27:24;101545.69;;;21.47;36.82
43312;BME280;30041;48.300;16.352;2024-01-30T03:29:49;101548.41;;;21.47;37.02
43312;BME280;30041;48.300;16.352;2024-01-30T03:32:15;101553.78;;;21.47;36.93
43312;BME280;30041;48.300;16.352;2024-01-30T03:34:41;101551.09;;;21.47;36.98
43312;BME280;30041;48.300;16.352;2024-01-30T03:37:07;101552.13;;;21.46;36.84
43312;BME280;30041;48.300;16.352;2024-01-30T03:39:32;101542.16;;;21.46;36.84
43312;BME280;30041;48.300;16.352;2024-01-30T03:41:58;101550.25;;;21.46;36.98
43312;BME280;30041;48.300;16.352;2024-01-30T03:44:24;101549.44;;;21.46;37.03
43312;BME280;30041;48.300;16.352;2024-01-30T03:46:50;101549.44;;;21.46;36.90
43312;BME280;30041;48.300;16.352;2024-01-30T03:49:16;101556.66;;;21.45;36.98
43312;BME280;30041;48.300;16.352;2024-01-30T03:51:44;101559.38;;;21.45;36.90
43312;BME280;30041;48.300;16.352;2024-01-30T03:54:10;101562.06;;;21.45;37.01
43312;BME280;30041;48.300;16.352;2024-01-30T03:56:36;101563.94;;;21.45;36.94
43312;BME280;30041;48.300;16.352;2024-01-30T03:59:01;101563.09;;;21.44;36.88
43312;BME280;30041;48.300;16.352;2024-01-30T04:01:27;101565.97;;;21.43;36.88
43312;BME280;30041;48.300;16.352;2024-01-30T04:03:53;101564.13;;;21.43;36.92
43312;BME280;30041;48.300;16.352;2024-01-30T04:06:18;101567.66;;;21.44;36.92
43312;BME280;30041;48.300;16.352;2024-01-30T04:08:44;101567.66;;;21.44;36.88
43312;BME280;30041;48.300;16.352;2024-01-30T04:11:10;101568.69;;;21.43;36.79
43312;BME280;30041;48.300;16.352;2024-01-30T04:13:36;101565.16;;;21.42;36.90
43312;BME280;30041;48.300;16.352;2024-01-30T04:16:02;101558.94;;;21.42;36.98
43312;BME280;30041;48.300;16.352;2024-01-30T04:18:28;101558.94;;;21.42;36.92
43312;BME280;30041;48.300;16.352;2024-01-30T04:20:54;101551.84;;;21.41;36.99
43312;BME280;30041;48.300;16.352;2024-01-30T04:23:20;101556.22;;;21.42;36.88
43312;BME280;30041;48.300;16.352;2024-01-30T04:25:49;101557.06;;;21.42;36.90
43312;BME280;30041;48.300;16.352;2024-01-30T04:28:15;101561.63;;;21.42;36.69
43312;BME280;30041;48.300;16.352;2024-01-30T04:30:40;101552.72;;;21.41;36.82
43312;BME280;30041;48.300;16.352;2024-01-30T04:33:06;101559.94;;;21.41;36.76
43312;BME280;30041;48.300;16.352;2024-01-30T04:35:32;101555.41;;;21.41;36.87
43312;BME280;30041;48.300;16.352;2024-01-30T04:37:58;101555.56;;;21.40;36.87
43312;BME280;30041;48.300;16.352;2024-01-30T04:40:24;101551.00;;;21.40;36.80
43312;BME280;30041;48.300;16.352;2024-01-30T04:42:52;101552.84;;;21.40;36.92
43312;BME280;30041;48.300;16.352;2024-01-30T04:45:17;101549.16;;;21.41;36.91
43312;BME280;30041;48.300;16.352;2024-01-30T04:47:43;101551.00;;;21.40;36.71
43312;BME280;30041;48.300;16.352;2024-01-30T04:50:09;101560.13;;;21.39;36.74
43312;BME280;30041;48.300;16.352;2024-01-30T04:52:35;101562.63;;;21.41;36.73
43312;BME280;30041;48.300;16.352;2024-01-30T04:55:01;101561.78;;;21.40;36.79
43312;BME280;30041;48.300;16.352;2024-01-30T04:57:27;101562.63;;;21.41;36.83
43312;BME280;30041;48.300;16.352;2024-01-30T04:59:53;101572.56;;;21.40;36.71
43312;BME280;30041;48.300;16.352;2024-01-30T05:02:19;101561.78;;;21.40;36.86
43312;BME280;30041;48.300;16.352;2024-01-30T05:04:45;101566.19;;;21.41;36.85
43312;BME280;30041;48.300;16.352;2024-01-30T05:07:11;101560.81;;;21.41;36.90
43312;BME280;30041;48.300;16.352;2024-01-30T05:09:36;101569.72;;;21.42;36.66
43312;BME280;30041;48.300;16.352;2024-01-30T05:12:02;101568.91;;;21.41;36.91
43312;BME280;30041;48.300;16.352;2024-01-30T05:14:28;101572.56;;;21.40;36.79
43312;BME280;30041;48.300;16.352;2024-01-30T05:16:54;101578.81;;;21.41;36.79
43312;BME280;30041;48.300;16.352;2024-01-30T05:19:20;101586.06;;;21.40;36.93
43312;BME280;30041;48.300;16.352;2024-01-30T05:21:46;101577.97;;;21.40;36.94
43312;BME280;30041;48.300;16.352;2024-01-30T05:24:11;101579.69;;;21.41;36.89
43312;BME280;30041;48.300;16.352;2024-01-30T05:26:37;101587.56;;;21.43;36.80
43312;BME280;30041;48.300;16.352;2024-01-30T05:29:04;101584.03;;;21.42;36.83
43312;BME280;30041;48.300;16.352;2024-01-30T05:31:30;101581.34;;;21.42;36.83
43312;BME280;30041;48.300;16.352;2024-01-30T05:33:56;101581.34;;;21.42;36.90
43312;BME280;30041;48.300;16.352;2024-01-30T05:36:21;101580.50;;;21.42;36.86
43312;BME280;30041;48.300;16.352;2024-01-30T05:38:47;101568.69;;;21.43;36.85
43312;BME280;30041;48.300;16.352;2024-01-30T05:41:13;101569.72;;;21.42;36.99
43312;BME280;30041;48.300;16.352;2024-01-30T05:43:39;101576.78;;;21.43;36.85
43312;BME280;30041;48.300;16.352;2024-01-30T05:46:04;101577.81;;;21.42;36.83
43312;BME280;30041;48.300;16.352;2024-01-30T05:48:30;101577.81;;;21.42;36.98
43312;BME280;30041;48.300;16.352;2024-01-30T05:50:56;101575.94;;;21.42;37.00
43312;BME280;30041;48.300;16.352;2024-01-30T05:53:22;101583.22;;;21.42;37.02
43312;BME280;30041;48.300;16.352;2024-01-30T05:55:47;101585.91;;;21.42;37.20
43312;BME280;30041;48.300;16.352;2024-01-30T05:58:13;101583.00;;;21.43;36.97
43312;BME280;30041;48.300;16.352;2024-01-30T06:00:39;101580.50;;;21.42;36.83
43312;BME280;30041;48.300;16.352;2024-01-30T06:03:05;101589.59;;;21.41;36.80
43312;BME280;30041;48.300;16.352;2024-01-30T06:05:30;101591.63;;;21.39;36.99
43312;BME280;30041;48.300;16.352;2024-01-30T06:07:56;101589.97;;;21.38;36.98
43312;BME280;30041;48.300;16.352;2024-01-30T06:10:22;101591.84;;;21.37;37.01
43312;BME280;30041;48.300;16.352;2024-01-30T06:12:48;101588.50;;;21.35;37.10
43312;BME280;30041;48.300;16.352;2024-01-30T06:15:14;101592.84;;;21.36;37.03
43312;BME280;30041;48.300;16.352;2024-01-30T06:17:39;101603.63;;;21.36;36.96
43312;BME280;30041;48.300;16.352;2024-01-30T06:20:06;101606.34;;;21.36;37.21
43312;BME280;30041;48.300;16.352;2024-01-30T06:22:33;101601.97;;;21.35;37.11
43312;BME280;30041;48.300;16.352;2024-01-30T06:25:04;101604.47;;;21.36;37.21
43312;BME280;30041;48.300;16.352;2024-01-30T06:27:30;101603.84;;;21.34;37.11
43312;BME280;30041;48.300;16.352;2024-01-30T06:29:56;101610.91;;;21.35;37.15
43312;BME280;30041;48.300;16.352;2024-01-30T06:32:25;101615.47;;;21.35;37.37
43312;BME280;30041;48.300;16.352;2024-01-30T06:34:50;101614.44;;;21.36;37.10
43312;BME280;30041;48.300;16.352;2024-01-30T06:37:16;101612.78;;;21.35;37.09
43312;BME280;30041;48.300;16.352;2024-01-30T06:39:42;101617.13;;;21.36;37.17
43312;BME280;30041;48.300;16.352;2024-01-30T06:42:08;101616.28;;;21.35;37.23
43312;BME280;30041;48.300;16.352;2024-01-30T06:44:34;101610.91;;;21.35;37.06
43312;BME280;30041;48.300;16.352;2024-01-30T06:47:02;101612.56;;;21.36;37.26
43312;BME280;30041;48.300;16.352;2024-01-30T06:49:27;101615.25;;;21.36;37.13
43312;BME280;30041;48.300;16.352;2024-01-30T06:51:53;101619.00;;;21.35;37.10
43312;BME280;30041;48.300;16.352;2024-01-30T06:54:19;101623.34;;;21.36;37.30
43312;BME280;30041;48.300;16.352;2024-01-30T06:56:47;101619.00;;;21.35;37.01
43312;BME280;30041;48.300;16.352;2024-01-30T06:59:13;101621.69;;;21.35;37.34
43312;BME280;30041;48.300;16.352;2024-01-30T07:01:39;101626.03;;;21.36;37.28
43312;BME280;30041;48.300;16.352;2024-01-30T07:04:04;101636.00;;;21.36;37.08
43312;BME280;30041;48.300;16.352;2024-01-30T07:06:33;101631.44;;;21.36;37.21
43312;BME280;30041;48.300;16.352;2024-01-30T07:08:59;101619.81;;;21.36;37.33
43312;BME280;30041;48.300;16.352;2024-01-30T07:11:24;101629.78;;;21.35;37.27
43312;BME280;30041;48.300;16.352;2024-01-30T07:13:51;101628.75;;;21.36;37.25
43312;BME280;30041;48.300;16.352;2024-01-30T07:16:16;101630.59;;;21.36;37.04
43312;BME280;30041;48.300;16.352;2024-01-30T07:18:43;101634.13;;;21.36;37.14
43312;BME280;30041;48.300;16.352;2024-01-30T07:21:09;101639.53;;;21.36;37.07
43312;BME280;30041;48.300;16.352;2024-01-30T07:23:35;101646.63;;;21.38;37.21
43312;BME280;30041;48.300;16.352;2024-01-30T07:26:03;101643.91;;;21.38;37.21
43312;BME280;30041;48.300;16.352;2024-01-30T07:28:31;101643.91;;;21.38;37.23
43312;BME280;30041;48.300;16.352;2024-01-30T07:30:57;101635.00;;;21.37;37.16
43312;BME280;30041;48.300;16.352;2024-01-30T07:33:23;101635.81;;;21.38;37.22
43312;BME280;30041;48.300;16.352;2024-01-30T07:35:49;101634.78;;;21.39;37.15
43312;BME280;30041;48.300;16.352;2024-01-30T07:38:15;101634.78;;;21.39;37.21
43312;BME280;30041;48.300;16.352;2024-01-30T07:40:43;101635.81;;;21.38;37.16
43312;BME280;30041;48.300;16.352;2024-01-30T07:43:09;101636.66;;;21.38;37.22
43312;BME280;30041;48.300;16.352;2024-01-30T07:45:35;101639.34;;;21.38;36.97
43312;BME280;30041;48.300;16.352;2024-01-30T07:48:01;101634.78;;;21.39;37.28
43312;BME280;30041;48.300;16.352;2024-01-30T07:50:29;101637.47;;;21.39;37.11
43312;BME280;30041;48.300;16.352;2024-01-30T07:52:56;101637.31;;;21.40;37.32
43312;BME280;30041;48.300;16.352;2024-01-30T07:55:22;101644.56;;;21.40;37.19
43312;BME280;30041;48.300;16.352;2024-01-30T07:57:48;101645.56;;;21.39;37.26
43312;BME280;30041;48.300;16.352;2024-01-30T08:00:14;101650.97;;;21.39;37.09
43312;BME280;30041;48.300;16.352;2024-01-30T08:02:40;101649.13;;;21.39;37.27
43312;BME280;30041;48.300;16.352;2024-01-30T08:05:08;101652.66;;;21.40;37.14
43312;BME280;30041;48.300;16.352;2024-01-30T08:07:34;101653.47;;;21.40;37.28
43312;BME280;30041;48.300;16.352;2024-01-30T08:10:00;101652.66;;;21.40;37.27
43312;BME280;30041;48.300;16.352;2024-01-30T08:12:26;101654.34;;;21.41;37.32
43312;BME280;30041;48.300;16.352;2024-01-30T08:14:51;101659.75;;;21.41;37.24
43312;BME280;30041;48.300;16.352;2024-01-30T08:17:17;101659.75;;;21.41;37.53
43312;BME280;30041;48.300;16.352;2024-01-30T08:19:46;101662.44;;;21.41;37.08
43312;BME280;30041;48.300;16.352;2024-01-30T08:22:12;101653.47;;;21.40;37.01
43312;BME280;30041;48.300;16.352;2024-01-30T08:24:40;101654.34;;;21.41;37.29
43312;BME280;30041;48.300;16.352;2024-01-30T08:27:07;101664.13;;;21.42;37.27
43312;BME280;30041;48.300;16.352;2024-01-30T08:29:33;101658.88;;;21.40;37.25
43312;BME280;30041;48.300;16.352;2024-01-30T08:31:58;101659.75;;;21.41;37.27
43312;BME280;30041;48.300;16.352;2024-01-30T08:34:27;101663.44;;;21.40;37.27
43312;BME280;30041;48.300;16.352;2024-01-30T08:36:53;101657.91;;;21.41;37.21
43312;BME280;30041;48.300;16.352;2024-01-30T08:39:22;101655.22;;;21.41;37.31
43312;BME280;30041;48.300;16.352;2024-01-30T08:41:47;101658.72;;;21.42;37.20
43312;BME280;30041;48.300;16.352;2024-01-30T08:44:13;101664.13;;;21.42;37.35
43312;BME280;30041;48.300;16.352;2024-01-30T08:46:41;101654.34;;;21.41;37.26
43312;BME280;30041;48.300;16.352;2024-01-30T08:49:07;101657.03;;;21.41;37.26
43312;BME280;30041;48.300;16.352;2024-01-30T08:51:33;101656.88;;;21.42;37.32
43312;BME280;30041;48.300;16.352;2024-01-30T08:53:59;101654.16;;;21.42;37.35
43312;BME280;30041;48.300;16.352;2024-01-30T08:56:24;101652.31;;;21.43;37.42
43312;BME280;30041;48.300;16.352;2024-01-30T08:58:50;101652.31;;;21.43;37.28
43312;BME280;30041;48.300;16.352;2024-01-30T09:01:16;101651.47;;;21.42;37.32
43312;BME280;30041;48.300;16.352;2024-01-30T09:03:42;101652.31;;;21.43;37.39
43312;BME280;30041;48.300;16.352;2024-01-30T09:06:09;101645.91;;;21.44;37.19
43312;BME280;30041;48.300;16.352;2024-01-30T09:08:35;101651.28;;;21.44;37.33
43312;BME280;30041;48.300;16.352;2024-01-30T09:11:01;101652.31;;;21.43;37.38
43312;BME280;30041;48.300;16.352;2024-01-30T09:13:27;101656.69;;;21.44;37.25
43312;BME280;30041;48.300;16.352;2024-01-30T09:15:52;101658.34;;;21.45;37.22
43312;BME280;30041;48.300;16.352;2024-01-30T09:18:18;101653.78;;;21.45;37.51
43312;BME280;30041;48.300;16.352;2024-01-30T09:20:44;101656.47;;;21.45;37.40
43312;BME280;30041;48.300;16.352;2024-01-30T09:23:10;101651.09;;;21.45;37.43
43312;BME280;30041;48.300;16.352;2024-01-30T09:25:38;101657.34;;;21.46;37.28
43312;BME280;30041;48.300;16.352;2024-01-30T09:28:05;101658.34;;;21.45;37.42
43312;BME280;30041;48.300;16.352;2024-01-30T09:30:31;101658.34;;;21.45;37.44
43312;BME280;30041;48.300;16.352;2024-01-30T09:32:56;101656.47;;;21.45;37.26
43312;BME280;30041;48.300;16.352;2024-01-30T09:35:22;101658.16;;;21.46;37.25
43312;BME280;30041;48.300;16.352;2024-01-30T09:37:48;101657.34;;;21.46;37.31
43312;BME280;30041;48.300;16.352;2024-01-30T09:40:14;101652.78;;;21.46;37.30
43312;BME280;30041;48.300;16.352;2024-01-30T09:42:40;101657.34;;;21.46;37.45
43312;BME280;30041;48.300;16.352;2024-01-30T09:45:10;101651.94;;;21.46;37.43
43312;BME280;30041;48.300;16.352;2024-01-30T09:47:41;101651.72;;;21.47;37.35
43312;BME280;30041;48.300;16.352;2024-01-30T09:50:08;101653.59;;;21.47;37.30
43312;BME280;30041;48.300;16.352;2024-01-30T09:52:34;101648.22;;;21.47;37.44
43312;BME280;30041;48.300;16.352;2024-01-30T09:55:01;101645.50;;;21.47;37.44
43312;BME280;30041;48.300;16.352;2024-01-30T09:57:27;101649.03;;;21.47;37.32
43312;BME280;30041;48.300;16.352;2024-01-30T09:59:53;101655.28;;;21.48;37.24
43312;BME280;30041;48.300;16.352;2024-01-30T10:02:19;101651.56;;;21.49;37.48
43312;BME280;30041;48.300;16.352;2024-01-30T10:04:47;101653.44;;;21.48;37.49
43312;BME280;30041;48.300;16.352;2024-01-30T10:07:14;101644.50;;;21.48;37.22
43312;BME280;30041;48.300;16.352;2024-01-30T10:09:40;101645.34;;;21.48;37.45
43312;BME280;30041;48.300;16.352;2024-01-30T10:12:09;101655.91;;;21.50;37.26
43312;BME280;30041;48.300;16.352;2024-01-30T10:14:42;101646.16;;;21.49;37.30
43312;BME280;30041;48.300;16.352;2024-01-30T10:17:09;101652.38;;;21.49;37.34
43312;BME280;30041;48.300;16.352;2024-01-30T10:19:42;101650.50;;;21.50;37.43
43312;BME280;30041;48.300;16.352;2024-01-30T10:22:09;101653.22;;;21.50;37.26
43312;BME280;30041;48.300;16.352;2024-01-30T10:24:35;101644.13;;;21.51;37.36
43312;BME280;30041;48.300;16.352;2024-01-30T10:27:01;101643.06;;;21.52;37.22
43312;BME280;30041;48.300;16.352;2024-01-30T10:29:28;101642.06;;;21.53;37.32
43312;BME280;30041;48.300;16.352;2024-01-30T10:32:04;101642.06;;;21.53;37.30
43312;BME280;30041;48.300;16.352;2024-01-30T10:34:33;101633.13;;;21.52;37.25
43312;BME280;30041;48.300;16.352;2024-01-30T10:37:09;101633.97;;;21.53;37.30
43312;BME280;30041;48.300;16.352;2024-01-30T10:39:38;101636.66;;;21.53;37.28
43312;BME280;30041;48.300;16.352;2024-01-30T10:42:05;101626.53;;;21.55;37.35
43312;BME280;30041;48.300;16.352;2024-01-30T10:47:26;101624.00;;;21.53;37.41
43312;BME280;30041;48.300;16.352;2024-01-30T10:49:54;101611.34;;;21.54;37.28
43312;BME280;30041;48.300;16.352;2024-01-30T10:52:21;101613.88;;;21.55;37.42
43312;BME280;30041;48.300;16.352;2024-01-30T10:54:52;101609.28;;;21.56;37.24
43312;BME280;30041;48.300;16.352;2024-01-30T10:57:18;101612.00;;;21.56;37.35
43312;BME280;30041;48.300;16.352;2024-01-30T10:59:46;101608.28;;;21.57;37.43
43312;BME280;30041;48.300;16.352;2024-01-30T11:02:13;101602.88;;;21.57;37.30
43312;BME280;30041;48.300;16.352;2024-01-30T11:04:43;101610.78;;;21.59;37.29
43312;BME280;30041;48.300;16.352;2024-01-30T11:07:16;101598.13;;;21.59;37.12
43312;BME280;30041;48.300;16.352;2024-01-30T11:09:52;101600.63;;;21.61;37.31
43312;BME280;30041;48.300;16.352;2024-01-30T11:12:27;101609.56;;;21.61;37.31
43312;BME280;30041;48.300;16.352;2024-01-30T11:15:10;101604.16;;;21.61;37.33
43312;BME280;30041;48.300;16.352;2024-01-30T11:20:20;101595.22;;;21.61;37.38
43312;BME280;30041;48.300;16.352;2024-01-30T11:22:47;101590.66;;;21.61;37.17
43312;BME280;30041;48.300;16.352;2024-01-30T11:25:18;101588.81;;;21.62;37.34
43312;BME280;30041;48.300;16.352;2024-01-30T11:27:45;101589.47;;;21.64;37.14
43312;BME280;30041;48.300;16.352;2024-01-30T11:30:27;101586.56;;;21.65;37.14
43312;BME280;30041;48.300;16.352;2024-01-30T11:32:59;101579.50;;;21.64;37.21
43312;BME280;30041;48.300;16.352;2024-01-30T11:35:25;101582.19;;;21.64;37.22
43312;BME280;30041;48.300;16.352;2024-01-30T11:37:52;101578.69;;;21.64;37.29
43312;BME280;30041;48.300;16.352;2024-01-30T11:40:19;101577.63;;;21.65;37.60
43312;BME280;30041;48.300;16.352;2024-01-30T11:42:47;101579.44;;;21.58;38.05
43312;BME280;30041;48.300;16.352;2024-01-30T11:45:17;101570.06;;;21.53;38.29
43312;BME280;30041;48.300;16.352;2024-01-30T11:47:42;101571.44;;;21.49;38.12
43312;BME280;30041;48.300;16.352;2024-01-30T11:50:09;101571.44;;;21.49;38.30
43312;BME280;30041;48.300;16.352;2024-01-30T11:52:35;101575.19;;;21.48;38.74
43312;BME280;30041;48.300;16.352;2024-01-30T11:55:01;101572.69;;;21.47;38.71
43312;BME280;30041;48.300;16.352;2024-01-30T11:57:27;101563.75;;;21.46;38.77
43312;BME280;30041;48.300;16.352;2024-01-30T11:59:53;101564.56;;;21.47;38.54
43312;BME280;30041;48.300;16.352;2024-01-30T12:02:19;101559.38;;;21.45;38.77
43312;BME280;30041;48.300;16.352;2024-01-30T12:04:44;101565.63;;;21.46;38.74
43312;BME280;30041;48.300;16.352;2024-01-30T12:07:13;101559.56;;;21.44;38.94
43312;BME280;30041;48.300;16.352;2024-01-30T12:09:39;101547.31;;;21.41;38.91
43312;BME280;30041;48.300;16.352;2024-01-30T12:12:06;101536.53;;;21.41;39.07
43312;BME280;30041;48.300;16.352;2024-01-30T12:14:32;101536.31;;;21.43;38.97
43312;BME280;30041;48.300;16.352;2024-01-30T12:16:58;101535.31;;;21.44;38.65
43312;BME280;30041;48.300;16.352;2024-01-30T12:19:25;101527.22;;;21.44;38.69
43312;BME280;30041;48.300;16.352;2024-01-30T12:21:57;101530.72;;;21.44;38.78
43312;BME280;30041;48.300;16.352;2024-01-30T12:24:23;101533.44;;;21.44;39.16
43312;BME280;30041;48.300;16.352;2024-01-30T12:26:51;101528.22;;;21.43;38.93
43312;BME280;30041;48.300;16.352;2024-01-30T12:29:17;101536.31;;;21.43;38.92
43312;BME280;30041;48.300;16.352;2024-01-30T12:31:46;101531.97;;;21.42;39.27
43312;BME280;30041;48.300;16.352;2024-01-30T12:34:14;101530.28;;;21.41;39.14
43312;BME280;30041;48.300;16.352;2024-01-30T12:36:40;101524.00;;;21.40;39.11
43312;BME280;30041;48.300;16.352;2024-01-30T12:39:05;101527.56;;;21.41;39.05
43312;BME280;30041;48.300;16.352;2024-01-30T12:41:31;101525.72;;;21.41;39.20